createdAt,value
2022-10-18T00:00:17.272Z,96985.09
2022-10-18T00:02:43.841Z,97002.50
2022-10-18T00:05:10.362Z,96994.78
2022-10-18T00:07:36.915Z,96990.34
2022-10-18T00:10:05.240Z,96992.22
2022-10-18T00:12:36.726Z,96987.31
2022-10-18T00:15:05.892Z,96976.94
2022-10-18T00:17:38.053Z,96983.06
2022-10-18T00:20:06.285Z,96982.25
2022-10-18T00:22:35.553Z,96984.63
2022-10-18T00:25:02.097Z,96967.19
2022-10-18T00:27:30.242Z,96976.34
2022-10-18T00:29:57.460Z,96955.94
2022-10-18T00:32:24.411Z,96969.66
2022-10-18T00:34:50.978Z,96957.34
2022-10-18T00:37:18.533Z,96970.59
2022-10-18T00:39:45.628Z,96958.63
2022-10-18T00:42:17.144Z,96958.94
2022-10-18T00:44:43.651Z,96969.66
2022-10-18T00:47:12.901Z,96965.44
2022-10-18T00:49:45.914Z,96974.53
2022-10-18T00:52:27.267Z,96984.00
2022-10-18T00:54:55.773Z,96969.88
2022-10-18T00:57:22.564Z,96968.19
2022-10-18T00:59:49.203Z,96964.13
2022-10-18T01:02:18.313Z,96970.81
2022-10-18T01:04:48.549Z,96956.50
2022-10-18T01:07:27.450Z,96963.94
2022-10-18T01:10:38.845Z,96964.69
2022-10-18T01:13:29.915Z,96962.22
2022-10-18T01:16:30.278Z,96956.81
2022-10-18T01:19:19.663Z,96959.25
2022-10-18T01:21:59.670Z,96948.22
2022-10-18T01:24:36.577Z,96964.13
2022-10-18T01:27:12.246Z,96960.44
2022-10-18T01:30:12.244Z,96945.34
2022-10-18T01:32:50.677Z,96965.63
2022-10-18T01:35:22.466Z,96957.03
2022-10-18T01:37:50.974Z,96942.94
2022-10-18T01:40:22.010Z,96953.84
2022-10-18T01:42:49.694Z,96960.88
2022-10-18T01:45:17.022Z,96950.66
2022-10-18T01:47:45.568Z,96959.91
2022-10-18T01:50:12.785Z,96969.03
2022-10-18T01:52:50.526Z,96956.50
2022-10-18T01:55:18.417Z,96956.75
2022-10-18T01:58:16.885Z,96968.72
2022-10-18T02:00:44.449Z,96934.66
2022-10-18T02:03:22.569Z,96971.47
2022-10-18T02:05:59.897Z,96956.50
2022-10-18T02:08:42.762Z,96960.84
2022-10-18T02:11:13.025Z,96941.13
2022-10-18T02:14:00.356Z,96961.50
2022-10-18T02:16:35.943Z,96969.78
2022-10-18T02:19:10.639Z,96966.81
2022-10-18T02:21:40.846Z,96970.41
2022-10-18T02:24:08.585Z,96939.94
2022-10-18T02:26:35.661Z,96966.91
2022-10-18T02:29:02.461Z,96966.16
2022-10-18T02:31:45.693Z,96967.34
2022-10-18T02:34:20.235Z,96962.47
2022-10-18T02:36:52.891Z,96957.16
2022-10-18T02:39:28.354Z,96949.50
2022-10-18T02:41:56.685Z,96952.06
2022-10-18T02:44:23.428Z,96959.28
2022-10-18T02:46:50.008Z,96954.50
2022-10-18T02:49:16.649Z,96960.88
2022-10-18T02:51:43.192Z,96960.88
2022-10-18T02:54:10.167Z,96968.09
2022-10-18T02:56:36.651Z,96955.22
2022-10-18T02:59:04.976Z,96982.28
2022-10-18T03:01:33.047Z,96956.38
2022-10-18T03:03:59.598Z,96964.34
2022-10-18T03:06:26.095Z,96951.72
2022-10-18T03:08:52.602Z,96976.75
2022-10-18T03:11:19.160Z,96965.41
2022-10-18T03:13:45.701Z,96951.06
2022-10-18T03:16:12.809Z,96952.16
2022-10-18T03:18:39.308Z,96961.16
2022-10-18T03:21:07.209Z,96961.34
2022-10-18T03:23:34.326Z,96970.25
2022-10-18T03:26:01.386Z,96986.47
2022-10-18T03:28:28.095Z,96951.13
2022-10-18T03:31:00.710Z,96973.09
2022-10-18T03:33:27.282Z,96984.38
2022-10-18T03:35:53.897Z,96984.03
2022-10-18T03:38:20.487Z,96992.88
2022-10-18T03:40:47.020Z,96974.88
2022-10-18T03:43:13.617Z,96999.41
2022-10-18T03:45:40.600Z,96986.78
2022-10-18T03:48:07.286Z,96983.19
2022-10-18T03:50:34.013Z,96979.97
2022-10-18T03:53:00.538Z,96964.19
2022-10-18T03:55:27.402Z,96995.50
2022-10-18T03:57:54.019Z,96990.38
2022-10-18T04:00:20.695Z,96990.06
2022-10-18T04:02:50.704Z,96986.53
2022-10-18T04:05:20.195Z,96984.19
2022-10-18T04:07:46.775Z,96964.22
2022-10-18T04:10:13.312Z,96989.72
2022-10-18T04:12:39.912Z,96986.53
2022-10-18T04:15:07.071Z,97005.75
2022-10-18T04:17:34.478Z,96995.06
2022-10-18T04:20:01.208Z,96984.81
2022-10-18T04:22:27.769Z,96987.78
2022-10-18T04:24:54.327Z,96992.66
2022-10-18T04:27:20.828Z,96972.28
2022-10-18T04:29:47.358Z,96986.31
2022-10-18T04:32:13.883Z,97009.19
2022-10-18T04:34:40.488Z,96992.25
2022-10-18T04:37:07.072Z,96974.31
2022-10-18T04:39:33.551Z,96975.59
2022-10-18T04:42:00.053Z,96980.75
2022-10-18T04:44:26.655Z,96974.63
2022-10-18T04:46:53.170Z,96976.00
2022-10-18T04:49:20.198Z,96970.69
2022-10-18T04:51:46.749Z,96983.72
2022-10-18T04:54:13.284Z,96978.75
2022-10-18T04:56:39.807Z,96988.53
2022-10-18T04:59:06.332Z,96984.28
2022-10-18T05:01:32.898Z,96965.06
2022-10-18T05:03:59.375Z,96960.44
2022-10-18T05:06:25.949Z,96985.56
2022-10-18T05:08:52.530Z,96975.91
2022-10-18T05:11:19.099Z,96973.38
2022-10-18T05:13:47.312Z,96970.91
2022-10-18T05:16:16.715Z,96986.09
2022-10-18T05:18:43.308Z,96985.38
2022-10-18T05:21:10.164Z,96996.09
2022-10-18T05:23:36.673Z,97001.06
2022-10-18T05:26:05.143Z,96986.25
2022-10-18T05:28:40.821Z,96968.69
2022-10-18T05:31:09.883Z,96963.47
2022-10-18T05:33:37.688Z,96971.88
2022-10-18T05:36:04.597Z,96953.44
2022-10-18T05:38:31.417Z,96949.09
2022-10-18T05:40:59.102Z,96948.69
2022-10-18T05:43:28.919Z,96954.94
2022-10-18T05:45:56.143Z,96945.09
2022-10-18T05:48:22.718Z,96970.78
2022-10-18T05:50:49.253Z,96974.38
2022-10-18T05:53:35.146Z,96979.38
2022-10-18T05:56:03.948Z,96989.78
2022-10-18T05:58:30.555Z,96980.53
2022-10-18T06:01:05.109Z,96986.81
2022-10-18T06:03:31.933Z,96986.41
2022-10-18T06:06:10.098Z,96997.47
2022-10-18T06:08:38.011Z,96998.28
2022-10-18T06:11:09.667Z,96990.34
2022-10-18T06:13:40.427Z,97003.94
2022-10-18T06:16:07.241Z,96998.44
2022-10-18T06:18:34.344Z,96991.22
2022-10-18T06:21:00.954Z,96984.94
2022-10-18T06:23:28.437Z,96992.72
2022-10-18T06:26:02.726Z,96993.53
2022-10-18T06:28:30.000Z,96997.28
2022-10-18T06:30:57.772Z,96987.50
2022-10-18T06:33:24.718Z,96988.34
2022-10-18T06:35:59.951Z,96977.44
2022-10-18T06:38:27.941Z,96986.53
2022-10-18T06:40:55.598Z,96980.28
2022-10-18T06:43:22.556Z,96964.91
2022-10-18T06:45:50.091Z,96983.38
2022-10-18T06:50:58.217Z,96986.22
2022-10-18T06:53:26.530Z,96986.13
2022-10-18T06:55:59.227Z,97007.06
2022-10-18T06:58:25.710Z,96997.81
2022-10-18T07:00:52.237Z,97010.13
2022-10-18T07:03:18.872Z,97017.25
2022-10-18T07:05:45.340Z,97008.44
2022-10-18T07:08:11.901Z,97014.78
2022-10-18T07:10:38.437Z,97024.56
2022-10-18T07:13:27.251Z,97020.84
2022-10-18T07:16:12.820Z,97025.06
2022-10-18T07:18:45.324Z,97036.75
2022-10-18T07:21:14.222Z,97039.63
2022-10-18T07:23:43.288Z,97025.47
2022-10-18T07:26:17.301Z,97026.63
2022-10-18T07:28:46.419Z,97023.88
2022-10-18T07:31:13.701Z,97020.00
2022-10-18T07:33:40.346Z,97011.31
2022-10-18T07:36:08.884Z,97004.47
2022-10-18T07:38:36.234Z,97005.22
2022-10-18T07:41:06.519Z,97023.13
2022-10-18T07:43:33.712Z,97029.19
2022-10-18T07:46:05.726Z,97034.47
2022-10-18T07:48:32.719Z,97031.69
2022-10-18T07:51:00.698Z,97032.09
2022-10-18T07:53:28.177Z,97016.25
2022-10-18T07:56:04.698Z,97025.44
2022-10-18T07:58:34.326Z,97023.50
2022-10-18T08:01:06.260Z,97017.31
2022-10-18T08:03:33.608Z,97013.59
2022-10-18T08:06:00.325Z,97014.75
2022-10-18T08:08:27.489Z,97015.97
2022-10-18T08:10:54.240Z,97017.44
2022-10-18T08:13:22.126Z,97008.25
2022-10-18T08:15:48.630Z,97028.84
2022-10-18T08:18:15.166Z,97039.78
2022-10-18T08:20:45.637Z,97046.78
2022-10-18T08:23:12.532Z,97031.63
2022-10-18T08:25:39.136Z,97028.75
2022-10-18T08:28:06.916Z,97038.50
2022-10-18T08:30:35.179Z,97028.25
2022-10-18T08:33:02.411Z,97027.50
2022-10-18T08:35:28.952Z,97034.69
2022-10-18T08:37:55.517Z,97029.91
2022-10-18T08:40:22.116Z,97018.91
2022-10-18T08:43:05.813Z,97020.88
2022-10-18T08:45:42.247Z,97033.19
2022-10-18T08:48:21.761Z,97010.72
2022-10-18T08:50:49.663Z,97018.84
2022-10-18T08:53:29.765Z,97023.69
2022-10-18T08:56:25.822Z,97019.25
2022-10-18T08:58:52.429Z,97017.00
2022-10-18T09:01:54.170Z,97026.09
2022-10-18T09:04:32.912Z,97017.81
2022-10-18T09:07:38.556Z,97007.50
2022-10-18T09:10:16.296Z,97006.50
2022-10-18T09:12:52.774Z,97015.69
2022-10-18T09:15:39.340Z,97019.75
2022-10-18T09:18:17.667Z,97020.88
2022-10-18T09:20:57.683Z,97024.63
2022-10-18T09:23:46.191Z,97019.75
2022-10-18T09:26:21.844Z,97020.03
2022-10-18T09:29:13.528Z,97018.69
2022-10-18T09:31:52.418Z,97030.56
2022-10-18T09:34:36.556Z,97017.69
2022-10-18T09:37:03.669Z,97012.91
2022-10-18T09:39:35.322Z,97015.53
2022-10-18T09:42:07.813Z,97016.53
2022-10-18T09:44:56.555Z,97019.63
2022-10-18T09:50:02.770Z,97007.91
2022-10-18T09:52:51.219Z,97000.91
2022-10-18T09:55:23.981Z,97004.88
2022-10-18T09:57:55.634Z,97000.75
2022-10-18T10:00:28.023Z,97005.00
2022-10-18T10:02:54.972Z,97006.16
2022-10-18T10:05:21.547Z,97016.50
2022-10-18T10:07:48.800Z,97009.41
2022-10-18T10:10:25.650Z,97005.91
2022-10-18T10:13:22.764Z,97008.28
2022-10-18T10:15:55.489Z,97002.56
2022-10-18T10:18:30.109Z,97003.59
2022-10-18T10:21:03.269Z,96989.97
2022-10-18T10:23:31.583Z,96990.09
2022-10-18T10:26:01.638Z,96991.69
2022-10-18T10:28:43.653Z,96985.25
2022-10-18T10:31:37.469Z,96982.41
2022-10-18T10:34:19.319Z,96979.00
2022-10-18T10:36:54.261Z,96991.50
2022-10-18T10:39:24.181Z,96980.78
2022-10-18T10:42:00.151Z,96971.38
2022-10-18T10:44:36.755Z,96978.75
2022-10-18T10:47:04.088Z,96989.75
2022-10-18T10:49:45.832Z,96987.00
2022-10-18T10:52:28.933Z,96980.53
2022-10-18T10:55:30.821Z,96974.84
2022-10-18T10:57:47.453Z,96973.56
2022-10-18T11:00:35.975Z,96967.88
2022-10-18T11:03:27.848Z,96972.25
2022-10-18T11:05:57.836Z,72854.09
2022-10-18T11:08:28.575Z,72854.09
2022-10-18T11:11:22.146Z,72854.09
2022-10-18T11:14:13.531Z,96965.69
2022-10-18T11:16:55.569Z,96952.34
2022-10-18T11:19:56.272Z,96954.72
2022-10-18T11:22:32.325Z,96956.25
2022-10-18T11:24:59.134Z,96947.34
2022-10-18T11:27:40.344Z,96946.13
2022-10-18T11:30:44.339Z,96953.50
2022-10-18T11:33:16.611Z,96952.91
2022-10-18T11:35:54.662Z,96924.88
2022-10-18T11:38:27.162Z,96942.88
2022-10-18T11:41:00.786Z,96941.44
2022-10-18T11:44:01.635Z,96948.06
2022-10-18T11:46:54.417Z,96944.47
2022-10-18T11:49:48.758Z,96948.16
2022-10-18T11:52:21.371Z,96937.28
2022-10-18T11:55:12.212Z,96938.81
2022-10-18T11:58:03.414Z,96927.97
2022-10-18T12:00:32.985Z,96933.81
2022-10-18T12:03:19.743Z,96917.88
2022-10-18T12:05:48.330Z,96920.06
2022-10-18T12:08:18.729Z,96917.97
2022-10-18T12:11:06.738Z,96910.03
2022-10-18T12:13:43.461Z,96912.34
2022-10-18T12:16:11.120Z,96910.94
2022-10-18T12:18:48.431Z,96916.13
2022-10-18T12:21:23.180Z,96897.88
2022-10-18T12:24:18.640Z,96889.25
2022-10-18T12:26:48.565Z,96895.84
2022-10-18T12:29:30.479Z,96898.81
2022-10-18T12:32:07.750Z,96890.09
2022-10-18T12:34:43.413Z,96882.84
2022-10-18T12:37:09.877Z,96888.81
2022-10-18T12:39:58.491Z,96880.88
2022-10-18T12:42:33.481Z,96884.56
2022-10-18T12:45:25.147Z,96887.47
2022-10-18T12:47:52.381Z,96872.88
2022-10-18T12:50:39.973Z,96878.84
2022-10-18T12:53:12.361Z,96876.69
2022-10-18T12:58:22.220Z,96868.13
2022-10-18T13:00:48.887Z,96875.41
2022-10-18T13:03:16.694Z,96872.53
2022-10-18T13:05:53.843Z,96876.22
2022-10-18T13:08:27.915Z,96866.06
2022-10-18T13:11:12.948Z,96875.63
2022-10-18T13:13:51.694Z,96869.91
2022-10-18T13:16:30.371Z,96865.53
2022-10-18T13:19:03.254Z,96865.56
2022-10-18T13:21:42.257Z,96867.03
2022-10-18T13:24:28.034Z,96873.59
2022-10-18T13:26:59.175Z,96868.53
2022-10-18T13:29:36.786Z,96875.06
2022-10-18T13:32:31.039Z,96867.09
2022-10-18T13:34:57.863Z,96864.13
2022-10-18T13:37:25.641Z,96864.13
2022-10-18T13:40:21.480Z,96865.00
2022-10-18T13:42:48.008Z,96866.41
2022-10-18T13:45:33.173Z,96872.25
2022-10-18T13:48:47.754Z,96873.69
2022-10-18T13:51:25.603Z,96877.28
2022-10-18T13:53:52.057Z,96873.69
2022-10-18T13:56:27.422Z,96877.28
2022-10-18T13:59:18.518Z,96872.22
2022-10-18T14:02:11.373Z,96864.78
2022-10-18T14:05:25.020Z,96879.41
2022-10-18T14:08:11.185Z,96873.53
2022-10-18T14:11:01.751Z,96885.16
2022-10-18T14:14:04.652Z,96892.38
2022-10-18T14:16:47.891Z,96877.81
2022-10-18T14:19:25.657Z,96868.28
2022-10-18T14:22:09.391Z,96874.88
2022-10-18T14:24:40.499Z,96865.31
2022-10-18T14:27:21.280Z,96868.28
2022-10-18T14:29:49.159Z,96882.78
2022-10-18T14:32:31.272Z,96868.13
2022-10-18T14:35:27.202Z,96868.84
2022-10-18T14:37:47.927Z,96869.59
2022-10-18T14:40:31.567Z,96864.53
2022-10-18T14:43:12.779Z,96879.00
2022-10-18T14:45:41.543Z,96868.69
2022-10-18T14:48:22.041Z,96874.59
2022-10-18T14:51:01.591Z,96880.34
2022-10-18T14:53:43.218Z,96874.53
2022-10-18T14:56:21.975Z,96867.94
2022-10-18T14:58:48.836Z,96864.88
2022-10-18T15:01:18.010Z,96860.56
2022-10-18T15:03:44.934Z,96867.94
2022-10-18T15:06:18.778Z,96874.38
2022-10-18T15:08:49.052Z,96880.22
2022-10-18T15:11:16.716Z,96888.91
2022-10-18T15:13:53.983Z,96887.44
2022-10-18T15:16:25.032Z,96877.09
2022-10-18T15:19:01.618Z,96885.16
2022-10-18T15:21:28.327Z,96887.94
2022-10-18T15:23:55.573Z,96882.88
2022-10-18T15:26:29.557Z,96890.16
2022-10-18T15:29:01.447Z,96881.28
2022-10-18T15:31:37.144Z,96891.50
2022-10-18T15:34:25.503Z,96896.47
2022-10-18T15:36:54.782Z,96874.50
2022-10-18T15:39:24.260Z,96883.41
2022-10-18T15:41:55.898Z,96892.03
2022-10-18T15:44:46.288Z,96892.06
2022-10-18T15:47:13.264Z,96902.19
2022-10-18T15:49:46.097Z,96896.41
2022-10-18T15:52:21.731Z,96899.97
2022-10-18T15:57:20.445Z,96899.16
2022-10-18T15:59:57.956Z,96904.22
2022-10-18T16:02:24.696Z,96904.19
2022-10-18T16:04:51.398Z,96885.63
2022-10-18T16:07:17.948Z,96907.69
2022-10-18T16:09:44.410Z,96905.56
2022-10-18T16:12:10.999Z,96906.84
2022-10-18T16:14:37.527Z,96906.69
2022-10-18T16:17:06.521Z,96899.44
2022-10-18T16:19:34.143Z,96896.47
2022-10-18T16:22:06.121Z,96891.13
2022-10-18T16:24:33.102Z,96898.31
2022-10-18T16:26:59.668Z,96909.28
2022-10-18T16:29:28.598Z,96916.41
2022-10-18T16:31:58.171Z,96914.09
2022-10-18T16:34:27.073Z,96922.66
2022-10-18T16:36:53.689Z,96919.59
2022-10-18T16:39:21.732Z,96925.34
2022-10-18T16:41:48.449Z,96928.19
2022-10-18T16:44:16.378Z,96925.06
2022-10-18T16:46:43.276Z,96930.09
2022-10-18T16:51:54.136Z,96948.91
2022-10-18T16:54:20.989Z,96939.22
2022-10-18T16:56:49.847Z,96937.66
2022-10-18T16:59:31.134Z,96951.56
2022-10-18T17:01:57.846Z,96945.41
2022-10-18T17:04:24.489Z,96941.03
2022-10-18T17:06:52.640Z,96954.91
2022-10-18T17:09:19.173Z,96948.31
2022-10-18T17:11:45.704Z,96949.66
2022-10-18T17:14:12.196Z,96950.25
2022-10-18T17:16:46.697Z,96843.28
2022-10-18T17:19:17.207Z,96958.13
2022-10-18T17:21:43.734Z,96962.38
2022-10-18T17:24:10.618Z,96973.88
2022-10-18T17:26:37.097Z,96951.19
2022-10-18T17:29:05.943Z,96970.72
2022-10-18T17:31:32.997Z,96947.34
2022-10-18T17:34:01.806Z,96967.78
2022-10-18T17:36:30.108Z,96967.09
2022-10-18T17:38:57.128Z,96964.66
2022-10-18T17:41:23.717Z,96979.13
2022-10-18T17:43:50.253Z,96979.88
2022-10-18T17:46:17.934Z,96981.97
2022-10-18T17:48:44.601Z,96982.56
2022-10-18T17:51:13.728Z,96986.13
2022-10-18T17:53:41.540Z,96991.09
2022-10-18T17:56:08.433Z,96998.34
2022-10-18T17:58:35.419Z,96998.31
2022-10-18T18:01:10.925Z,97001.13
2022-10-18T18:03:37.529Z,97007.50
2022-10-18T18:06:22.005Z,97003.81
2022-10-18T18:08:49.759Z,97011.66
2022-10-18T18:11:17.089Z,97006.47
2022-10-18T18:13:43.628Z,97002.03
2022-10-18T18:16:14.751Z,96995.31
2022-10-18T18:18:41.674Z,96998.25
2022-10-18T18:21:08.349Z,96968.69
2022-10-18T18:23:34.949Z,96988.31
2022-10-18T18:26:01.546Z,96984.75
2022-10-18T18:28:28.108Z,96993.41
2022-10-18T18:30:54.616Z,96991.06
2022-10-18T18:33:21.173Z,96992.34
2022-10-18T18:35:58.056Z,97002.56
2022-10-18T18:38:25.758Z,97006.09
2022-10-18T18:41:12.690Z,97003.16
2022-10-18T18:43:41.359Z,96995.75
2022-10-18T18:46:08.740Z,96985.25
2022-10-18T18:48:36.458Z,96994.91
2022-10-18T18:51:04.945Z,96997.81
2022-10-18T18:53:34.695Z,96985.81
2022-10-18T18:56:09.009Z,96998.97
2022-10-18T18:58:37.749Z,97016.31
2022-10-18T19:01:13.704Z,97016.97
2022-10-18T19:03:40.643Z,96999.44
2022-10-18T19:06:09.885Z,97001.66
2022-10-18T19:08:38.352Z,97011.06
2022-10-18T19:11:09.085Z,97014.72
2022-10-18T19:13:36.167Z,97024.03
2022-10-18T19:16:20.219Z,97013.25
2022-10-18T19:18:55.006Z,97011.00
2022-10-18T19:21:23.080Z,97004.38
2022-10-18T19:23:50.314Z,97007.06
2022-10-18T19:26:27.431Z,97011.56
2022-10-18T19:28:54.534Z,97007.06
2022-10-18T19:31:21.616Z,96995.84
2022-10-18T19:33:58.992Z,97011.31
2022-10-18T19:36:27.036Z,97014.19
2022-10-18T19:38:53.526Z,97011.13
2022-10-18T19:41:20.211Z,97006.00
2022-10-18T19:43:46.900Z,97008.00
2022-10-18T19:46:13.437Z,97002.00
2022-10-18T19:48:39.950Z,97005.34
2022-10-18T19:51:09.447Z,97004.31
2022-10-18T19:53:41.250Z,97006.38
2022-10-18T19:56:08.611Z,97007.66
2022-10-18T19:58:36.095Z,97014.78
2022-10-18T20:01:02.692Z,97020.38
2022-10-18T20:03:30.339Z,97012.16
2022-10-18T20:05:58.461Z,97017.28
2022-10-18T20:08:25.791Z,97025.03
2022-10-18T20:10:52.585Z,97015.53
2022-10-18T20:13:19.527Z,97023.28
2022-10-18T20:15:51.061Z,97019.53
2022-10-18T20:18:19.427Z,97023.38
2022-10-18T20:20:48.270Z,97018.41
2022-10-18T20:23:16.807Z,97020.41
2022-10-18T20:25:54.553Z,97022.28
2022-10-18T20:28:21.095Z,97018.47
2022-10-18T20:30:47.567Z,97030.72
2022-10-18T20:33:14.056Z,97025.53
2022-10-18T20:35:40.691Z,97023.34
2022-10-18T20:38:07.247Z,97004.75
2022-10-18T20:40:33.763Z,97024.34
2022-10-18T20:43:03.710Z,97019.03
2022-10-18T20:45:30.649Z,97025.97
2022-10-18T20:47:57.161Z,97019.09
2022-10-18T20:50:23.743Z,97033.16
2022-10-18T20:52:51.326Z,97029.44
2022-10-18T20:55:18.790Z,97040.25
2022-10-18T20:57:45.700Z,97033.00
2022-10-18T21:00:13.037Z,97032.69
2022-10-18T21:02:39.529Z,97026.53
2022-10-18T21:05:06.195Z,97035.03
2022-10-18T21:07:32.818Z,97032.06
2022-10-18T21:09:59.472Z,97034.88
2022-10-18T21:12:28.766Z,97012.91
2022-10-18T21:14:55.698Z,97025.41
2022-10-18T21:17:22.186Z,97025.41
2022-10-18T21:19:48.765Z,97018.66
2022-10-18T21:22:15.309Z,97022.97
2022-10-18T21:24:42.485Z,97021.31
2022-10-18T21:27:09.027Z,97012.56
2022-10-18T21:29:35.564Z,97012.91
2022-10-18T21:32:02.712Z,97019.41
2022-10-18T21:34:29.234Z,97014.91
2022-10-18T21:36:55.835Z,97016.94
2022-10-18T21:41:55.555Z,97024.44
2022-10-18T21:44:22.220Z,97015.47
2022-10-18T21:46:48.882Z,97006.03
2022-10-18T21:49:16.299Z,97008.22
2022-10-18T21:51:43.371Z,97001.50
2022-10-18T21:54:15.957Z,97009.72
2022-10-18T21:56:46.260Z,96994.16
2022-10-18T21:59:13.526Z,97012.28
2022-10-18T22:01:40.728Z,97001.41
2022-10-18T22:04:16.964Z,96998.28
2022-10-18T22:06:43.512Z,97005.28
2022-10-18T22:09:10.234Z,96999.50
2022-10-18T22:11:44.410Z,96988.50
2022-10-18T22:14:11.374Z,96986.00
2022-10-18T22:16:39.930Z,96986.69
2022-10-18T22:19:07.149Z,96997.38
2022-10-18T22:25:47.841Z,96999.25
2022-10-18T22:28:14.594Z,96988.88
2022-10-18T22:30:43.210Z,96994.00
2022-10-18T22:33:12.342Z,96994.63
2022-10-18T22:35:38.898Z,96996.63
2022-10-18T22:38:05.465Z,96984.84
2022-10-18T22:40:32.026Z,96953.59
2022-10-18T22:42:58.578Z,96977.63
2022-10-18T22:45:25.162Z,96985.75
2022-10-18T22:47:51.751Z,96977.88
2022-10-18T22:50:19.329Z,96973.44
2022-10-18T22:52:46.884Z,96970.63
2022-10-18T22:55:13.424Z,96977.78
2022-10-18T22:57:39.965Z,96977.13
2022-10-18T23:00:07.163Z,96974.31
2022-10-18T23:02:34.083Z,96977.44
2022-10-18T23:05:00.892Z,96965.69
2022-10-18T23:07:27.520Z,96947.63
2022-10-18T23:09:53.977Z,96969.97
2022-10-18T23:12:20.512Z,96970.03
2022-10-18T23:14:47.003Z,96985.19
2022-10-18T23:17:13.542Z,96973.59
2022-10-18T23:19:40.223Z,96972.84
2022-10-18T23:22:06.747Z,96966.91
2022-10-18T23:24:33.276Z,96967.06
2022-10-18T23:26:59.816Z,96959.28
2022-10-18T23:29:26.329Z,96971.69
2022-10-18T23:31:52.845Z,96952.78
2022-10-18T23:34:19.406Z,96973.25
2022-10-18T23:36:45.903Z,96957.22
2022-10-18T23:39:13.578Z,96956.16
2022-10-18T23:41:40.081Z,96963.88
2022-10-18T23:44:08.945Z,96943.31
2022-10-18T23:46:35.481Z,96965.38
2022-10-18T23:49:01.978Z,96958.69
2022-10-18T23:51:28.750Z,96955.16
2022-10-18T23:53:55.559Z,96947.75
2022-10-18T23:56:22.330Z,96944.38
2022-10-18T23:58:49.236Z,96948.91
